sensor_id;sensor_type;location;lat;lon;timestamp;P1;P2;P0
55549;PMS7003;41397;49.972;18.944;2023-03-01T00:02:56;71;52;32
55549;PMS7003;41397;49.972;18.944;2023-03-01T00:05:58;59;47;29
55549;PMS7003;41397;49.972;18.944;2023-03-01T00:08:59;64;56;34
55549;PMS7003;41397;49.972;18.944;2023-03-01T00:12:01;61;49;29
55549;PMS7003;41397;49.972;18.944;2023-03-01T00:15:03;71;67;33
55549;PMS7003;41397;49.972;18.944;2023-03-01T00:18:05;74;66;36
55549;PMS7003;41397;49.972;18.944;2023-03-01T00:21:07;66;57;33
55549;PMS7003;41397;49.972;18.944;2023-03-01T00:24:09;75;56;33
55549;PMS7003;41397;49.972;18.944;2023-03-01T00:27:11;84;65;37
55549;PMS7003;41397;49.972;18.944;2023-03-01T00:30:12;89;79;40
55549;PMS7003;41397;49.972;18.944;2023-03-01T00:33:14;82;79;45
55549;PMS7003;41397;49.972;18.944;2023-03-01T00:36:15;93;67;40
55549;PMS7003;41397;49.972;18.944;2023-03-01T00:39:17;69;63;37
55549;PMS7003;41397;49.972;18.944;2023-03-01T00:42:18;87;71;40
55549;PMS7003;41397;49.972;18.944;2023-03-01T00:45:20;77;71;42
55549;PMS7003;41397;49.972;18.944;2023-03-01T00:48:22;67;54;34
55549;PMS7003;41397;49.972;18.944;2023-03-01T00:51:25;67;53;33
55549;PMS7003;41397;49.972;18.944;2023-03-01T00:54:28;71;62;37
55549;PMS7003;41397;49.972;18.944;2023-03-01T00:57:30;65;52;31
55549;PMS7003;41397;49.972;18.944;2023-03-01T01:00:32;63;53;29
55549;PMS7003;41397;49.972;18.944;2023-03-01T01:03:34;66;53;35
55549;PMS7003;41397;49.972;18.944;2023-03-01T01:06:37;74;64;37
55549;PMS7003;41397;49.972;18.944;2023-03-01T01:09:43;75;73;36
55549;PMS7003;41397;49.972;18.944;2023-03-01T01:12:45;71;63;36
55549;PMS7003;41397;49.972;18.944;2023-03-01T01:15:46;83;68;36
55549;PMS7003;41397;49.972;18.944;2023-03-01T01:18:48;79;71;43
55549;PMS7003;41397;49.972;18.944;2023-03-01T01:21:50;76;73;42
55549;PMS7003;41397;49.972;18.944;2023-03-01T01:24:51;95;79;41
55549;PMS7003;41397;49.972;18.944;2023-03-01T01:27:53;73;64;43
55549;PMS7003;41397;49.972;18.944;2023-03-01T01:30:54;84;81;43
55549;PMS7003;41397;49.972;18.944;2023-03-01T01:33:56;91;77;41
55549;PMS7003;41397;49.972;18.944;2023-03-01T01:37:01;85;75;41
55549;PMS7003;41397;49.972;18.944;2023-03-01T01:40:03;76;71;44
55549;PMS7003;41397;49.972;18.944;2023-03-01T01:43:09;73;69;39
55549;PMS7003;41397;49.972;18.944;2023-03-01T01:52:47;92;84;44
55549;PMS7003;41397;49.972;18.944;2023-03-01T01:55:56;87;75;45
55549;PMS7003;41397;49.972;18.944;2023-03-01T01:59:02;71;64;34
55549;PMS7003;41397;49.972;18.944;2023-03-01T02:02:03;72;63;35
55549;PMS7003;41397;49.972;18.944;2023-03-01T02:05:14;71;61;38
55549;PMS7003;41397;49.972;18.944;2023-03-01T02:08:19;89;67;35
55549;PMS7003;41397;49.972;18.944;2023-03-01T02:11:22;81;71;39
55549;PMS7003;41397;49.972;18.944;2023-03-01T02:14:24;64;54;34
55549;PMS7003;41397;49.972;18.944;2023-03-01T02:17:26;72;63;36
55549;PMS7003;41397;49.972;18.944;2023-03-01T02:20:33;77;62;37
55549;PMS7003;41397;49.972;18.944;2023-03-01T02:23:41;74;71;44
55549;PMS7003;41397;49.972;18.944;2023-03-01T02:26:47;100;75;39
55549;PMS7003;41397;49.972;18.944;2023-03-01T02:29:52;73;59;32
55549;PMS7003;41397;49.972;18.944;2023-03-01T02:32:54;85;63;40
55549;PMS7003;41397;49.972;18.944;2023-03-01T02:36:06;68;60;42
55549;PMS7003;41397;49.972;18.944;2023-03-01T02:39:15;77;73;41
55549;PMS7003;41397;49.972;18.944;2023-03-01T02:42:22;70;65;39
55549;PMS7003;41397;49.972;18.944;2023-03-01T02:45:27;69;61;36
55549;PMS7003;41397;49.972;18.944;2023-03-01T02:48:38;72;63;37
55549;PMS7003;41397;49.972;18.944;2023-03-01T02:58:05;72;63;37
55549;PMS7003;41397;49.972;18.944;2023-03-01T03:01:08;81;74;40
55549;PMS7003;41397;49.972;18.944;2023-03-01T03:04:15;77;72;41
55549;PMS7003;41397;49.972;18.944;2023-03-01T03:07:18;84;81;45
55549;PMS7003;41397;49.972;18.944;2023-03-01T03:10:21;83;68;36
55549;PMS7003;41397;49.972;18.944;2023-03-01T03:13:27;77;68;34
55549;PMS7003;41397;49.972;18.944;2023-03-01T03:16:29;77;74;38
55549;PMS7003;41397;49.972;18.944;2023-03-01T03:19:30;90;77;43
55549;PMS7003;41397;49.972;18.944;2023-03-01T03:22:32;100;83;44
55549;PMS7003;41397;49.972;18.944;2023-03-01T03:25:34;91;73;39
55549;PMS7003;41397;49.972;18.944;2023-03-01T03:28:39;87;80;49
55549;PMS7003;41397;49.972;18.944;2023-03-01T03:31:40;104;78;43
55549;PMS7003;41397;49.972;18.944;2023-03-01T03:34:42;69;57;28
55549;PMS7003;41397;49.972;18.944;2023-03-01T03:37:43;75;66;37
55549;PMS7003;41397;49.972;18.944;2023-03-01T03:41:03;81;72;42
55549;PMS7003;41397;49.972;18.944;2023-03-01T03:44:09;93;81;45
55549;PMS7003;41397;49.972;18.944;2023-03-01T03:47:16;72;66;38
55549;PMS7003;41397;49.972;18.944;2023-03-01T03:50:17;78;66;40
55549;PMS7003;41397;49.972;18.944;2023-03-01T03:53:20;81;76;41
55549;PMS7003;41397;49.972;18.944;2023-03-01T03:56:23;70;67;43
55549;PMS7003;41397;49.972;18.944;2023-03-01T03:59:27;71;60;37
55549;PMS7003;41397;49.972;18.944;2023-03-01T04:02:28;75;68;44
55549;PMS7003;41397;49.972;18.944;2023-03-01T04:05:30;72;62;39
55549;PMS7003;41397;49.972;18.944;2023-03-01T04:08:32;70;64;36
55549;PMS7003;41397;49.972;18.944;2023-03-01T04:11:34;73;59;37
55549;PMS7003;41397;49.972;18.944;2023-03-01T04:14:35;72;63;36
55549;PMS7003;41397;49.972;18.944;2023-03-01T04:17:37;76;75;46
55549;PMS7003;41397;49.972;18.944;2023-03-01T04:20:40;73;66;36
55549;PMS7003;41397;49.972;18.944;2023-03-01T04:23:43;81;73;40
55549;PMS7003;41397;49.972;18.944;2023-03-01T04:26:44;78;65;35
55549;PMS7003;41397;49.972;18.944;2023-03-01T04:29:46;87;82;44
55549;PMS7003;41397;49.972;18.944;2023-03-01T04:32:47;79;77;41
55549;PMS7003;41397;49.972;18.944;2023-03-01T04:35:50;90;75;44
55549;PMS7003;41397;49.972;18.944;2023-03-01T04:38:52;92;84;42
55549;PMS7003;41397;49.972;18.944;2023-03-01T04:41:54;89;83;53
55549;PMS7003;41397;49.972;18.944;2023-03-01T04:44:56;78;73;43
55549;PMS7003;41397;49.972;18.944;2023-03-01T04:47:57;90;87;45
55549;PMS7003;41397;49.972;18.944;2023-03-01T04:50:59;77;66;41
55549;PMS7003;41397;49.972;18.944;2023-03-01T04:54:01;90;81;44
55549;PMS7003;41397;49.972;18.944;2023-03-01T04:57:03;93;88;50
55549;PMS7003;41397;49.972;18.944;2023-03-01T05:00:06;80;69;39
55549;PMS7003;41397;49.972;18.944;2023-03-01T05:03:24;94;76;42
55549;PMS7003;41397;49.972;18.944;2023-03-01T05:06:26;95;89;50
55549;PMS7003;41397;49.972;18.944;2023-03-01T05:09:28;104;93;52
55549;PMS7003;41397;49.972;18.944;2023-03-01T05:12:29;73;69;43
55549;PMS7003;41397;49.972;18.944;2023-03-01T05:15:32;73;68;45
55549;PMS7003;41397;49.972;18.944;2023-03-01T05:18:34;97;84;41
55549;PMS7003;41397;49.972;18.944;2023-03-01T05:21:35;89;76;42
55549;PMS7003;41397;49.972;18.944;2023-03-01T05:24:47;85;77;42
55549;PMS7003;41397;49.972;18.944;2023-03-01T05:27:48;81;62;31
55549;PMS7003;41397;49.972;18.944;2023-03-01T05:30:50;91;79;41
55549;PMS7003;41397;49.972;18.944;2023-03-01T05:33:52;98;90;50
55549;PMS7003;41397;49.972;18.944;2023-03-01T05:36:54;106;101;53
55549;PMS7003;41397;49.972;18.944;2023-03-01T05:39:55;96;90;50
55549;PMS7003;41397;49.972;18.944;2023-03-01T05:42:57;113;99;55
55549;PMS7003;41397;49.972;18.944;2023-03-01T05:45:58;108;84;47
55549;PMS7003;41397;49.972;18.944;2023-03-01T05:49:00;99;82;46
55549;PMS7003;41397;49.972;18.944;2023-03-01T05:52:04;91;80;45
55549;PMS7003;41397;49.972;18.944;2023-03-01T05:55:06;97;83;51
55549;PMS7003;41397;49.972;18.944;2023-03-01T05:58:12;105;88;49
55549;PMS7003;41397;49.972;18.944;2023-03-01T06:01:15;94;85;48
55549;PMS7003;41397;49.972;18.944;2023-03-01T06:04:17;93;89;51
55549;PMS7003;41397;49.972;18.944;2023-03-01T06:07:24;104;89;55
55549;PMS7003;41397;49.972;18.944;2023-03-01T06:10:26;91;82;43
55549;PMS7003;41397;49.972;18.944;2023-03-01T06:13:28;89;86;53
55549;PMS7003;41397;49.972;18.944;2023-03-01T06:16:34;110;99;53
55549;PMS7003;41397;49.972;18.944;2023-03-01T06:19:38;101;92;52
55549;PMS7003;41397;49.972;18.944;2023-03-01T06:22:39;114;79;50
55549;PMS7003;41397;49.972;18.944;2023-03-01T06:25:42;91;79;44
55549;PMS7003;41397;49.972;18.944;2023-03-01T06:28:43;85;76;43
55549;PMS7003;41397;49.972;18.944;2023-03-01T06:31:46;81;74;43
55549;PMS7003;41397;49.972;18.944;2023-03-01T06:34:48;102;92;54
55549;PMS7003;41397;49.972;18.944;2023-03-01T06:37:50;117;93;51
55549;PMS7003;41397;49.972;18.944;2023-03-01T06:40:52;101;87;51
55549;PMS7003;41397;49.972;18.944;2023-03-01T06:43:57;109;100;57
55549;PMS7003;41397;49.972;18.944;2023-03-01T06:46:59;76;68;41
55549;PMS7003;41397;49.972;18.944;2023-03-01T06:50:01;89;78;47
55549;PMS7003;41397;49.972;18.944;2023-03-01T06:53:04;78;73;46
55549;PMS7003;41397;49.972;18.944;2023-03-01T06:56:05;91;88;50
55549;PMS7003;41397;49.972;18.944;2023-03-01T06:59:08;88;81;52
55549;PMS7003;41397;49.972;18.944;2023-03-01T07:02:13;105;95;49
55549;PMS7003;41397;49.972;18.944;2023-03-01T07:05:15;115;110;60
55549;PMS7003;41397;49.972;18.944;2023-03-01T07:08:17;102;99;55
55549;PMS7003;41397;49.972;18.944;2023-03-01T07:11:25;102;84;50
55549;PMS7003;41397;49.972;18.944;2023-03-01T07:14:27;86;79;49
55549;PMS7003;41397;49.972;18.944;2023-03-01T07:17:29;105;91;56
55549;PMS7003;41397;49.972;18.944;2023-03-01T07:20:31;104;91;53
55549;PMS7003;41397;49.972;18.944;2023-03-01T07:23:33;102;88;48
55549;PMS7003;41397;49.972;18.944;2023-03-01T07:26:35;103;96;55
55549;PMS7003;41397;49.972;18.944;2023-03-01T07:29:37;104;96;49
55549;PMS7003;41397;49.972;18.944;2023-03-01T07:32:39;86;80;47
55549;PMS7003;41397;49.972;18.944;2023-03-01T07:35:42;87;79;48
55549;PMS7003;41397;49.972;18.944;2023-03-01T07:38:43;79;77;48
55549;PMS7003;41397;49.972;18.944;2023-03-01T07:41:45;73;60;33
55549;PMS7003;41397;49.972;18.944;2023-03-01T07:44:46;62;53;31
55549;PMS7003;41397;49.972;18.944;2023-03-01T07:47:52;59;44;28
55549;PMS7003;41397;49.972;18.944;2023-03-01T07:50:54;68;57;33
55549;PMS7003;41397;49.972;18.944;2023-03-01T07:53:58;76;73;41
55549;PMS7003;41397;49.972;18.944;2023-03-01T07:57:00;92;74;43
55549;PMS7003;41397;49.972;18.944;2023-03-01T08:00:01;87;78;45
55549;PMS7003;41397;49.972;18.944;2023-03-01T08:03:03;67;54;34
55549;PMS7003;41397;49.972;18.944;2023-03-01T08:06:09;76;64;35
55549;PMS7003;41397;49.972;18.944;2023-03-01T08:09:11;74;61;34
55549;PMS7003;41397;49.972;18.944;2023-03-01T08:12:13;66;48;30
55549;PMS7003;41397;49.972;18.944;2023-03-01T08:15:17;62;53;33
55549;PMS7003;41397;49.972;18.944;2023-03-01T08:18:19;63;55;33
55549;PMS7003;41397;49.972;18.944;2023-03-01T08:21:21;43;37;24
55549;PMS7003;41397;49.972;18.944;2023-03-01T08:24:23;60;47;31
55549;PMS7003;41397;49.972;18.944;2023-03-01T08:27:25;42;35;21
55549;PMS7003;41397;49.972;18.944;2023-03-01T08:30:27;56;45;29
55549;PMS7003;41397;49.972;18.944;2023-03-01T08:33:28;65;53;29
55549;PMS7003;41397;49.972;18.944;2023-03-01T08:36:32;50;42;25
55549;PMS7003;41397;49.972;18.944;2023-03-01T08:39:42;54;44;27
55549;PMS7003;41397;49.972;18.944;2023-03-01T08:42:43;55;44;28
55549;PMS7003;41397;49.972;18.944;2023-03-01T08:45:45;56;44;26
55549;PMS7003;41397;49.972;18.944;2023-03-01T08:48:49;46;39;27
55549;PMS7003;41397;49.972;18.944;2023-03-01T08:51:50;47;39;24
55549;PMS7003;41397;49.972;18.944;2023-03-01T08:54:52;51;40;24
55549;PMS7003;41397;49.972;18.944;2023-03-01T08:57:53;72;53;29
55549;PMS7003;41397;49.972;18.944;2023-03-01T09:00:59;52;43;27
55549;PMS7003;41397;49.972;18.944;2023-03-01T09:04:01;44;36;24
55549;PMS7003;41397;49.972;18.944;2023-03-01T09:07:03;55;43;29
55549;PMS7003;41397;49.972;18.944;2023-03-01T09:10:05;14;14;9
55549;PMS7003;41397;49.972;18.944;2023-03-01T09:13:06;41;35;23
55549;PMS7003;41397;49.972;18.944;2023-03-01T09:16:08;40;36;22
55549;PMS7003;41397;49.972;18.944;2023-03-01T09:19:12;44;37;23
55549;PMS7003;41397;49.972;18.944;2023-03-01T09:22:14;42;32;21
55549;PMS7003;41397;49.972;18.944;2023-03-01T09:25:18;42;36;24
55549;PMS7003;41397;49.972;18.944;2023-03-01T09:28:20;41;36;23
55549;PMS7003;41397;49.972;18.944;2023-03-01T09:31:32;49;41;26
55549;PMS7003;41397;49.972;18.944;2023-03-01T09:34:34;43;37;23
55549;PMS7003;41397;49.972;18.944;2023-03-01T09:37:46;46;36;23
55549;PMS7003;41397;49.972;18.944;2023-03-01T09:40:50;30;27;19
55549;PMS7003;41397;49.972;18.944;2023-03-01T09:44:01;35;32;19
55549;PMS7003;41397;49.972;18.944;2023-03-01T09:47:09;44;37;24
55549;PMS7003;41397;49.972;18.944;2023-03-01T09:50:21;36;30;22
55549;PMS7003;41397;49.972;18.944;2023-03-01T09:59:52;28;27;18
55549;PMS7003;41397;49.972;18.944;2023-03-01T10:06:21;32;28;19
55549;PMS7003;41397;49.972;18.944;2023-03-01T10:09:26;33;31;20
55549;PMS7003;41397;49.972;18.944;2023-03-01T10:12:35;41;36;23
55549;PMS7003;41397;49.972;18.944;2023-03-01T10:15:50;34;31;19
55549;PMS7003;41397;49.972;18.944;2023-03-01T10:19:02;28;27;16
55549;PMS7003;41397;49.972;18.944;2023-03-01T10:25:17;38;33;22
55549;PMS7003;41397;49.972;18.944;2023-03-01T10:31:46;31;29;19
55549;PMS7003;41397;49.972;18.944;2023-03-01T10:34:50;32;29;20
55549;PMS7003;41397;49.972;18.944;2023-03-01T10:41:05;32;29;18
55549;PMS7003;41397;49.972;18.944;2023-03-01T10:44:07;29;28;19
55549;PMS7003;41397;49.972;18.944;2023-03-01T10:47:19;35;31;20
55549;PMS7003;41397;49.972;18.944;2023-03-01T10:50:25;33;28;18
55549;PMS7003;41397;49.972;18.944;2023-03-01T10:53:28;27;26;17
55549;PMS7003;41397;49.972;18.944;2023-03-01T10:56:45;27;26;17
55549;PMS7003;41397;49.972;18.944;2023-03-01T10:59:46;28;26;17
55549;PMS7003;41397;49.972;18.944;2023-03-01T11:09:29;38;34;22
55549;PMS7003;41397;49.972;18.944;2023-03-01T11:12:38;33;30;18
55549;PMS7003;41397;49.972;18.944;2023-03-01T11:15:57;30;28;16
55549;PMS7003;41397;49.972;18.944;2023-03-01T11:18:56;34;31;19
55549;PMS7003;41397;49.972;18.944;2023-03-01T11:25:14;33;31;20
55549;PMS7003;41397;49.972;18.944;2023-03-01T11:28:18;28;27;17
55549;PMS7003;41397;49.972;18.944;2023-03-01T11:31:23;32;29;19
55549;PMS7003;41397;49.972;18.944;2023-03-01T11:44:14;34;30;20
55549;PMS7003;41397;49.972;18.944;2023-03-01T11:50:50;41;33;20
55549;PMS7003;41397;49.972;18.944;2023-03-01T11:53:50;20;20;16
55549;PMS7003;41397;49.972;18.944;2023-03-01T11:56:57;27;26;16
55549;PMS7003;41397;49.972;18.944;2023-03-01T12:23:24;26;25;17
55549;PMS7003;41397;49.972;18.944;2023-03-01T12:26:35;27;27;19
55549;PMS7003;41397;49.972;18.944;2023-03-01T12:29:51;27;26;19
55549;PMS7003;41397;49.972;18.944;2023-03-01T12:39:31;37;32;19
55549;PMS7003;41397;49.972;18.944;2023-03-01T12:45:56;32;30;19
55549;PMS7003;41397;49.972;18.944;2023-03-01T12:49:15;36;33;24
55549;PMS7003;41397;49.972;18.944;2023-03-01T12:52:29;27;26;15
55549;PMS7003;41397;49.972;18.944;2023-03-01T12:55:38;25;25;18
55549;PMS7003;41397;49.972;18.944;2023-03-01T12:58:57;37;32;18
55549;PMS7003;41397;49.972;18.944;2023-03-01T13:08:49;28;27;18
55549;PMS7003;41397;49.972;18.944;2023-03-01T13:12:15;27;27;18
55549;PMS7003;41397;49.972;18.944;2023-03-01T13:18:29;33;30;19
55549;PMS7003;41397;49.972;18.944;2023-03-01T13:21:33;26;25;19
55549;PMS7003;41397;49.972;18.944;2023-03-01T13:24:39;30;28;17
55549;PMS7003;41397;49.972;18.944;2023-03-01T13:27:43;31;29;18
55549;PMS7003;41397;49.972;18.944;2023-03-01T13:30:46;23;23;13
55549;PMS7003;41397;49.972;18.944;2023-03-01T13:33:51;31;29;20
55549;PMS7003;41397;49.972;18.944;2023-03-01T13:36:53;27;25;16
55549;PMS7003;41397;49.972;18.944;2023-03-01T13:43:29;31;24;17
55549;PMS7003;41397;49.972;18.944;2023-03-01T13:46:33;29;28;19
55549;PMS7003;41397;49.972;18.944;2023-03-01T13:52:50;38;33;20
55549;PMS7003;41397;49.972;18.944;2023-03-01T13:59:17;24;22;15
55549;PMS7003;41397;49.972;18.944;2023-03-01T14:02:20;30;29;19
55549;PMS7003;41397;49.972;18.944;2023-03-01T14:05:23;25;24;17
55549;PMS7003;41397;49.972;18.944;2023-03-01T14:08:26;19;16;14
55549;PMS7003;41397;49.972;18.944;2023-03-01T14:17:59;28;27;18
55549;PMS7003;41397;49.972;18.944;2023-03-01T14:21:08;26;26;17
55549;PMS7003;41397;49.972;18.944;2023-03-01T14:27:29;26;26;19
55549;PMS7003;41397;49.972;18.944;2023-03-01T14:33:54;25;24;17
55549;PMS7003;41397;49.972;18.944;2023-03-01T14:37:09;27;25;17
55549;PMS7003;41397;49.972;18.944;2023-03-01T14:40:19;34;32;22
55549;PMS7003;41397;49.972;18.944;2023-03-01T14:43:23;31;29;18
55549;PMS7003;41397;49.972;18.944;2023-03-01T14:46:31;30;29;19
55549;PMS7003;41397;49.972;18.944;2023-03-01T14:49:39;36;33;20
55549;PMS7003;41397;49.972;18.944;2023-03-01T14:52:42;30;28;20
55549;PMS7003;41397;49.972;18.944;2023-03-01T14:55:48;40;36;24
55549;PMS7003;41397;49.972;18.944;2023-03-01T14:58:53;39;35;25
55549;PMS7003;41397;49.972;18.944;2023-03-01T15:02:00;32;30;19
55549;PMS7003;41397;49.972;18.944;2023-03-01T15:05:08;32;29;21
55549;PMS7003;41397;49.972;18.944;2023-03-01T15:11:21;35;31;22
55549;PMS7003;41397;49.972;18.944;2023-03-01T15:14:26;40;36;22
55549;PMS7003;41397;49.972;18.944;2023-03-01T15:17:36;40;35;23
55549;PMS7003;41397;49.972;18.944;2023-03-01T15:20:39;37;33;21
55549;PMS7003;41397;49.972;18.944;2023-03-01T15:23:41;37;33;21
55549;PMS7003;41397;49.972;18.944;2023-03-01T15:30:13;44;37;24
55549;PMS7003;41397;49.972;18.944;2023-03-01T15:36:35;32;29;14
55549;PMS7003;41397;49.972;18.944;2023-03-01T15:39:42;37;32;23
55549;PMS7003;41397;49.972;18.944;2023-03-01T15:42:54;44;36;24
55549;PMS7003;41397;49.972;18.944;2023-03-01T15:45:58;39;34;24
55549;PMS7003;41397;49.972;18.944;2023-03-01T15:49:01;40;35;26
55549;PMS7003;41397;49.972;18.944;2023-03-01T15:52:08;46;39;24
55549;PMS7003;41397;49.972;18.944;2023-03-01T15:55:18;42;37;24
55549;PMS7003;41397;49.972;18.944;2023-03-01T15:58:24;57;44;28
55549;PMS7003;41397;49.972;18.944;2023-03-01T16:01:26;50;41;27
55549;PMS7003;41397;49.972;18.944;2023-03-01T16:04:29;52;43;27
55549;PMS7003;41397;49.972;18.944;2023-03-01T16:07:30;58;47;29
55549;PMS7003;41397;49.972;18.944;2023-03-01T16:10:32;64;51;30
55549;PMS7003;41397;49.972;18.944;2023-03-01T16:13:35;57;47;31
55549;PMS7003;41397;49.972;18.944;2023-03-01T16:16:36;59;49;30
55549;PMS7003;41397;49.972;18.944;2023-03-01T16:19:38;65;56;31
55549;PMS7003;41397;49.972;18.944;2023-03-01T16:22:43;66;51;30
55549;PMS7003;41397;49.972;18.944;2023-03-01T16:25:46;65;53;30
55549;PMS7003;41397;49.972;18.944;2023-03-01T16:28:47;60;47;31
55549;PMS7003;41397;49.972;18.944;2023-03-01T16:31:49;64;54;30
55549;PMS7003;41397;49.972;18.944;2023-03-01T16:34:50;56;45;27
55549;PMS7003;41397;49.972;18.944;2023-03-01T16:37:52;58;46;29
55549;PMS7003;41397;49.972;18.944;2023-03-01T16:42:07;66;54;33
55549;PMS7003;41397;49.972;18.944;2023-03-01T16:45:09;69;59;35
55549;PMS7003;41397;49.972;18.944;2023-03-01T16:48:12;65;53;34
55549;PMS7003;41397;49.972;18.944;2023-03-01T16:51:16;73;64;35
55549;PMS7003;41397;49.972;18.944;2023-03-01T16:54:18;88;74;48
55549;PMS7003;41397;49.972;18.944;2023-03-01T16:57:19;60;49;33
55549;PMS7003;41397;49.972;18.944;2023-03-01T17:00:21;58;47;31
55549;PMS7003;41397;49.972;18.944;2023-03-01T17:03:24;72;59;37
55549;PMS7003;41397;49.972;18.944;2023-03-01T17:06:30;84;83;50
55549;PMS7003;41397;49.972;18.944;2023-03-01T17:09:36;76;72;43
55549;PMS7003;41397;49.972;18.944;2023-03-01T17:12:38;83;70;39
55549;PMS7003;41397;49.972;18.944;2023-03-01T17:15:40;84;79;47
55549;PMS7003;41397;49.972;18.944;2023-03-01T17:18:42;83;73;45
55549;PMS7003;41397;49.972;18.944;2023-03-01T17:21:44;91;77;45
55549;PMS7003;41397;49.972;18.944;2023-03-01T17:24:46;77;69;45
55549;PMS7003;41397;49.972;18.944;2023-03-01T17:27:50;90;83;49
55549;PMS7003;41397;49.972;18.944;2023-03-01T17:30:53;92;87;48
55549;PMS7003;41397;49.972;18.944;2023-03-01T17:33:55;140;119;70
55549;PMS7003;41397;49.972;18.944;2023-03-01T17:36:57;116;111;61
55549;PMS7003;41397;49.972;18.944;2023-03-01T17:39:58;105;101;64
55549;PMS7003;41397;49.972;18.944;2023-03-01T17:43:00;105;100;63
55549;PMS7003;41397;49.972;18.944;2023-03-01T17:46:06;139;118;67
55549;PMS7003;41397;49.972;18.944;2023-03-01T17:49:08;135;120;65
55549;PMS7003;41397;49.972;18.944;2023-03-01T17:52:10;122;116;65
55549;PMS7003;41397;49.972;18.944;2023-03-01T17:55:11;110;101;59
55549;PMS7003;41397;49.972;18.944;2023-03-01T17:58:13;108;100;61
55549;PMS7003;41397;49.972;18.944;2023-03-01T18:01:18;130;124;66
55549;PMS7003;41397;49.972;18.944;2023-03-01T18:04:23;118;117;76
55549;PMS7003;41397;49.972;18.944;2023-03-01T18:07:33;128;115;71
55549;PMS7003;41397;49.972;18.944;2023-03-01T18:14:01;132;119;66
55549;PMS7003;41397;49.972;18.944;2023-03-01T18:17:03;150;136;72
55549;PMS7003;41397;49.972;18.944;2023-03-01T18:20:11;125;115;65
55549;PMS7003;41397;49.972;18.944;2023-03-01T18:23:21;144;120;67
55549;PMS7003;41397;49.972;18.944;2023-03-01T18:26:34;118;104;60
55549;PMS7003;41397;49.972;18.944;2023-03-01T18:29:36;130;99;57
55549;PMS7003;41397;49.972;18.944;2023-03-01T18:32:38;107;103;55
55549;PMS7003;41397;49.972;18.944;2023-03-01T18:35:39;119;112;57
55549;PMS7003;41397;49.972;18.944;2023-03-01T18:42:10;136;123;70
55549;PMS7003;41397;49.972;18.944;2023-03-01T18:45:11;151;130;74
55549;PMS7003;41397;49.972;18.944;2023-03-01T18:48:17;159;148;85
55549;PMS7003;41397;49.972;18.944;2023-03-01T18:51:26;147;138;71
55549;PMS7003;41397;49.972;18.944;2023-03-01T18:54:29;158;130;76
55549;PMS7003;41397;49.972;18.944;2023-03-01T18:57:32;143;130;73
55549;PMS7003;41397;49.972;18.944;2023-03-01T19:00:33;120;100;50
55549;PMS7003;41397;49.972;18.944;2023-03-01T19:03:35;111;96;50
55549;PMS7003;41397;49.972;18.944;2023-03-01T19:06:37;131;114;60
55549;PMS7003;41397;49.972;18.944;2023-03-01T19:09:39;114;96;59
55549;PMS7003;41397;49.972;18.944;2023-03-01T19:12:41;91;81;42
55549;PMS7003;41397;49.972;18.944;2023-03-01T19:15:42;91;84;52
55549;PMS7003;41397;49.972;18.944;2023-03-01T19:18:45;102;93;51
55549;PMS7003;41397;49.972;18.944;2023-03-01T19:21:51;95;85;49
55549;PMS7003;41397;49.972;18.944;2023-03-01T19:24:52;107;89;51
55549;PMS7003;41397;49.972;18.944;2023-03-01T19:27:54;89;81;45
55549;PMS7003;41397;49.972;18.944;2023-03-01T19:30:59;99;90;50
55549;PMS7003;41397;49.972;18.944;2023-03-01T19:34:06;99;82;46
55549;PMS7003;41397;49.972;18.944;2023-03-01T19:37:07;84;81;46
55549;PMS7003;41397;49.972;18.944;2023-03-01T19:40:09;94;80;47
55549;PMS7003;41397;49.972;18.944;2023-03-01T19:43:12;92;78;47
55549;PMS7003;41397;49.972;18.944;2023-03-01T19:46:16;85;79;47
55549;PMS7003;41397;49.972;18.944;2023-03-01T19:49:24;102;96;53
55549;PMS7003;41397;49.972;18.944;2023-03-01T19:52:30;107;89;46
55549;PMS7003;41397;49.972;18.944;2023-03-01T19:55:34;117;107;56
55549;PMS7003;41397;49.972;18.944;2023-03-01T19:58:37;108;105;62
55549;PMS7003;41397;49.972;18.944;2023-03-01T20:01:40;112;104;61
55549;PMS7003;41397;49.972;18.944;2023-03-01T20:04:50;98;93;52
55549;PMS7003;41397;49.972;18.944;2023-03-01T20:07:55;121;115;65
55549;PMS7003;41397;49.972;18.944;2023-03-01T20:11:06;128;116;58
55549;PMS7003;41397;49.972;18.944;2023-03-01T20:14:10;133;119;65
55549;PMS7003;41397;49.972;18.944;2023-03-01T20:17:12;135;118;63
55549;PMS7003;41397;49.972;18.944;2023-03-01T20:20:17;127;112;63
55549;PMS7003;41397;49.972;18.944;2023-03-01T20:23:19;121;110;62
55549;PMS7003;41397;49.972;18.944;2023-03-01T20:26:21;131;121;58
55549;PMS7003;41397;49.972;18.944;2023-03-01T20:29:26;128;110;74
55549;PMS7003;41397;49.972;18.944;2023-03-01T20:32:27;103;86;49
55549;PMS7003;41397;49.972;18.944;2023-03-01T20:35:30;122;94;50
55549;PMS7003;41397;49.972;18.944;2023-03-01T20:38:36;77;42;13
55549;PMS7003;41397;49.972;18.944;2023-03-01T20:41:38;145;106;56
55549;PMS7003;41397;49.972;18.944;2023-03-01T20:44:40;125;102;62
55549;PMS7003;41397;49.972;18.944;2023-03-01T20:47:44;142;119;61
55549;PMS7003;41397;49.972;18.944;2023-03-01T20:50:46;110;90;51
55549;PMS7003;41397;49.972;18.944;2023-03-01T20:53:48;114;103;55
55549;PMS7003;41397;49.972;18.944;2023-03-01T20:56:49;133;117;66
55549;PMS7003;41397;49.972;18.944;2023-03-01T20:59:51;147;124;67
55549;PMS7003;41397;49.972;18.944;2023-03-01T21:02:53;101;98;61
55549;PMS7003;41397;49.972;18.944;2023-03-01T21:05:55;127;102;62
55549;PMS7003;41397;49.972;18.944;2023-03-01T21:08:57;103;91;56
55549;PMS7003;41397;49.972;18.944;2023-03-01T21:11:59;139;114;65
55549;PMS7003;41397;49.972;18.944;2023-03-01T21:15:00;116;106;64
55549;PMS7003;41397;49.972;18.944;2023-03-01T21:18:02;154;129;63
55549;PMS7003;41397;49.972;18.944;2023-03-01T21:21:13;152;123;58
55549;PMS7003;41397;49.972;18.944;2023-03-01T21:24:17;116;100;55
55549;PMS7003;41397;49.972;18.944;2023-03-01T21:27:19;129;102;60
55549;PMS7003;41397;49.972;18.944;2023-03-01T21:30:21;118;100;59
55549;PMS7003;41397;49.972;18.944;2023-03-01T21:33:22;103;89;50
55549;PMS7003;41397;49.972;18.944;2023-03-01T21:36:27;123;109;58